General Aviation Weather

Text Reports

Enter one or more of the following location identifiers separated by a space:

Zip Code, Four-Character ICAO or Three-Character IATA airport codes.

METAR - Aviation Routine Weather Report
KMKO - Muskogee, Oklahoma
Updated at 3:53 PM GMT on August 02, 2015 (10:53 AM CDT):
METAR KMKO 021553Z AUTO 19006KT 10SM SCT110 29/22 A3000 RMK AO2 SLP151 T02940217 $
TAF - Terminal Area Forecast
KMKO - Muskogee, Oklahoma
Updated at 3:53 PM GMT on August 02, 2015 (10:53 AM CDT):
No TAF is currently available for this location.
Decoded:
No decoded TAF is available.
PIREP - Pilot Weather Report
KMKO - Muskogee, Oklahoma
Updated at 3:53 PM GMT on August 02, 2015 (10:53 AM CDT):
No PIREP is currently available for this location.
AIRMET - Airmens Meteorological Information
KMKO - Muskogee, Oklahoma
Updated at 3:53 PM GMT on August 02, 2015 (10:53 AM CDT):
No AIRMET is currently available for this location.
SIGMET - Significant Meteorological Information
KMKO - Muskogee, Oklahoma
Updated at 3:53 PM GMT on August 02, 2015 (10:53 AM CDT):
No SIGMET is currently available for this location.
NOTAM - Notice to Airmen
KMKO - Muskogee, Oklahoma
Updated at 3:53 PM GMT on August 02, 2015 (10:53 AM CDT):
No NOTAM is currently available for this location.
Forecast Area
KMKO - Muskogee, Oklahoma
Updated at 3:53 PM GMT on August 02, 2015 (10:53 AM CDT):
No NOTAM is currently available for this location.
Aviation Weather Maps